• Join FlightAware (Why Join?)
  • Login
  • US Flag 
06:36PM EDT


 

Airport Tracker/Info


-or-


 

Live Flight TrackerFlight Track Log ✈ N379B ✈ 27-Aug-2013 ✈ KMKC - KABQ

Flight Track Log - Related Links

Times and Time Zones

All times are in EDT time to prevent confusion due to time zone crossing. See the N379B flight status page for this flight to view local times or setup timezone preferences in your user account.

Time Position Orientation Groundspeed Altitude Reporting Facility
EDT Latitude Longitude Course Direction KTS MPH feet Rate Location/Type
11:24AM 39.0833 -94.6500 228° Southwest 203 234 4,900  Level Kansas City TRACON
11:25AM 39.0744 -94.7494 263° West 265 305 6,000 2,040 Climbing Kansas City Center
11:26AM 39.0908 -94.8386 283° West 264 304 9,100 3,000 Climbing Kansas City Center
11:27AM 39.1261 -94.9328 296° West 261 300 12,200 2,640 Climbing Kansas City Center
11:28AM 39.1553 -95.0147 295° West 262 302 14,600 2,460 Climbing Kansas City Center
11:29AM 39.1900 -95.1092 295° West 262 302 17,400 2,400 Climbing Kansas City Center
11:30AM 39.2228 -95.1953 296° West 261 300 19,600 2,040 Climbing Kansas City Center
11:31AM 39.2214 -95.2972 269° West 267 307 21,700 1,980 Climbing Kansas City Center
11:32AM 39.2097 -95.3942 261° West 272 313 23,700 1,860 Climbing Kansas City Center
11:33AM 39.1819 -95.4831 248° West 277 319 25,600 1,800 Climbing Kansas City Center
11:34AM 39.1483 -95.5914 248° West 291 335 27,500 1,680 Climbing Kansas City Center
11:35AM 39.1181 -95.6900 248° West 308 354 29,100 1,740 Climbing Kansas City Center
11:36AM 39.0842 -95.8083 250° West 317 365 31,100 1,680 Climbing Kansas City Center
11:37AM 39.0494 -95.9114 247° West 325 374 32,600 1,680 Climbing Kansas City Center
11:38AM 39.0119 -96.0317 248° West 325 374 34,600 1,680 Climbing Kansas City Center
11:39AM 38.9789 -96.1356 248° West 328 377 36,100 300 Climbing Kansas City Center
11:41AM 38.9197 -96.2545 252° West  Level FlightAware Approximate
11:48AM 38.6609 -97.0876 248° West  Level FlightAware Approximate
11:49AM 38.6232 -97.2061 248° West  Level FlightAware Approximate
11:50AM 38.5855 -97.3246 248° West  Level FlightAware Approximate
11:51AM 38.5469 -97.4425 247° West  Level FlightAware Approximate
11:52AM 38.5076 -97.5600 247° West  Level FlightAware Approximate
11:53AM 38.4681 -97.6773 247° West  Level FlightAware Approximate
11:54AM 38.4284 -97.7945 247° West  Level FlightAware Approximate
11:54AM 38.3572 -98.0544 246° West 423 487 40,000  Level Kansas City Center
11:55AM 38.3887 -97.9115 247° West  Level FlightAware Approximate
11:55AM 38.3108 -98.1911 247° West 424 488 40,000  Level Kansas City Center
11:56AM 38.3488 -98.0285 247° West  Level FlightAware Approximate
11:56AM 38.2653 -98.3278 247° West 424 488 40,000  Level Kansas City Center
11:57AM 38.3088 -98.1452 246° West  Level FlightAware Approximate
11:57AM 38.2183 -98.4642 246° West 424 488 40,000  Level Kansas City Center
11:58AM 38.2687 -98.2619 246° West  Level FlightAware Approximate
11:58AM 38.1719 -98.6011 247° West 423 487 40,000  Level Kansas City Center
11:59AM 38.2285 -98.3784 246° West  Level FlightAware Approximate
11:59AM 38.1169 -98.7642 247° West 422 486 40,000  Level Kansas City Center
12:00PM 38.0697 -98.9006 246° West 424 488 40,000  Level Kansas City Center
12:01PM 38.0219 -99.0361 246° West 423 487 40,000  Level Kansas City Center
12:02PM 37.9747 -99.1722 246° West 423 487 40,000  Level Kansas City Center
12:03PM 37.9267 -99.3086 246° West 426 490 40,000  Level Kansas City Center
12:04PM 37.8792 -99.4442 246° West 423 487 40,000  Level Kansas City Center
12:05PM 37.8200 -99.6064 245° Southwest 424 488 40,000  Level Kansas City Center
12:07PM 37.7736 -99.7367 246° West 424 488 40,000  Level Kansas City Center
12:08PM 37.7189 -99.8883 246° West 425 489 40,000  Level Kansas City Center
12:09PM 37.6725 -100.0192 246° West 426 490 40,000  Level Kansas City Center
12:10PM 37.6183 -100.1683 245° Southwest 422 486 40,000  Level Kansas City Center
12:11PM 37.5714 -100.2989 246° West 423 487 40,000  Level Kansas City Center
12:12PM 37.5239 -100.4294 245° Southwest 426 490 40,000  Level Kansas City Center
12:13PM 37.4675 -100.5822 245° Southwest 428 493 40,000  Level Kansas City Center
12:14PM 37.4186 -100.7142 245° Southwest 430 495 40,000  Level Kansas City Center
12:15PM 37.3625 -100.8675 245° Southwest 429 494 40,000  Level Kansas City Center
12:16PM 37.3139 -100.9978 245° Southwest 427 491 40,000  Level Kansas City Center
12:17PM 37.2597 -101.1489 246° West 425 489 40,000  Level Kansas City Center
12:18PM 37.2114 -101.2772 245° Southwest 424 488 40,000  Level Kansas City Center
12:19PM 37.1639 -101.4050 245° Southwest 423 487 40,000  Level Kansas City Center
12:20PM 37.1078 -101.5550 245° Southwest 424 488 40,000  Level Kansas City Center
12:21PM 37.0586 -101.6822 244° Southwest 424 488 40,000  Level Kansas City Center
12:22PM 37.0019 -101.8317 245° Southwest 424 488 40,000  Level Kansas City Center
12:23PM 36.9533 -101.9592 245° Southwest 424 488 40,000  Level Kansas City Center
12:24PM 36.8964 -102.1072 244° Southwest 424 488 40,000  Level Kansas City Center
12:25PM 36.8589 -102.2053 244° Southwest 422 486 40,000  Level Albuquerque Center
12:26PM 36.8094 -102.3375 245° Southwest 422 486 40,000  Level Albuquerque Center
12:27PM 36.7581 -102.4686 244° Southwest 422 486 40,000  Level Albuquerque Center
12:28PM 36.7050 -102.6028 244° Southwest 418 481 40,000  Level Albuquerque Center
12:29PM 36.6483 -102.7483 244° Southwest 417 480 40,000  Level Albuquerque Center
12:30PM 36.5956 -102.8817 244° Southwest 417 480 40,000  Level Albuquerque Center
12:31PM 36.5450 -103.0111 244° Southwest 407 468 40,000  Level Albuquerque Center
12:32PM 36.4981 -103.1294 244° Southwest 400 460 40,000  Level Albuquerque Center
12:33PM 36.4425 -103.2697 244° Southwest 403 464 40,000  Level Albuquerque Center
12:34PM 36.3967 -103.3864 244° Southwest 407 468 40,000  Level Albuquerque Center
12:35PM 36.3456 -103.5133 243° Southwest 409 471 40,000  Level Albuquerque Center
12:36PM 36.2861 -103.6611 244° Southwest 408 470 40,000  Level Albuquerque Center
12:37PM 36.2356 -103.7858 243° Southwest 405 466 40,000 -420 Level Albuquerque Center
12:38PM 36.1675 -103.8989 233° Southwest 411 473 39,200 -1,500 Descending Albuquerque Center
12:39PM 36.0844 -103.9883 221° Southwest 398 458 37,000 -2,280 Descending Albuquerque Center
12:40PM 36.0006 -104.0797 221° Southwest 397 457 34,500 -2,340 Descending Albuquerque Center
12:41PM 35.9156 -104.1736 222° Southwest 404 465 32,200 -1,260 Descending Albuquerque Center
12:42PM 35.8333 -104.2633 222° Southwest 397 457 32,000 -120 Descending Albuquerque Center
12:43PM 35.7358 -104.3694 221° Southwest 397 457 32,000  Level Albuquerque Center
12:44PM 35.6483 -104.4647 222° Southwest 411 473 32,000  Level Albuquerque Center
12:46PM 35.5603 -104.5606 222° Southwest 419 482 32,000  Level Albuquerque Center
12:47PM 35.4719 -104.6553 221° Southwest 421 484 32,000  Level Albuquerque Center
12:48PM 35.3831 -104.7503 221° Southwest 422 486 32,000  Level Albuquerque Center
12:49PM 35.2800 -104.8603 221° Southwest 421 484 32,000  Level Albuquerque Center
12:50PM 35.1919 -104.9539 221° Southwest 418 481 32,000 -120 Level Albuquerque Center
12:51PM 35.1194 -105.0647 231° Southwest 418 481 31,800 -1,200 Descending Albuquerque Center
12:52PM 35.0872 -105.2028 254° West 421 484 29,500 -2,220 Descending Albuquerque Center
12:53PM 35.0689 -105.3447 261° West 421 484 27,200 -2,220 Descending Albuquerque Center
12:54PM 35.0494 -105.4881 261° West 423 487 25,000 -2,280 Descending Albuquerque Center
12:55PM 35.0269 -105.6361 260° West 415 478 22,600 -2,220 Descending Albuquerque Center
12:56PM 35.0086 -105.7644 260° West 392 451 20,500 -2,160 Descending Albuquerque Center
12:57PM 34.9886 -105.8983 260° West 375 432 18,300 -2,040 Descending Albuquerque Center
12:57PM 34.9783 -105.9606 259° West 358 412 17,500 -1,560 Descending Albuquerque Center
12:58PM 34.9714 -106.0092 260° West 359 413 16,600 -1,680 Descending Albuquerque Center
12:59PM 34.9581 -106.1244 262° West 347 399 14,800 -2,460 Descending Albuquerque Center
01:00PM 34.9708 -106.2494 277° West 328 377 11,600 -2,340 Descending Albuquerque Center
01:01PM 34.9850 -106.3469 280° West 296 341 10,000 -780 Descending Albuquerque Center
01:02PM 34.9672 -106.4281 255° West 247 284 10,000  Level Albuquerque Center
01:03PM 34.9475 -106.5053 253° West 238 274 10,000 -60 Level Albuquerque Center
01:04PM 34.9261 -106.5819 251° West 238 274 9,900 -1,200 Descending Albuquerque Center
01:05PM 34.9519 -106.6592 292° West 206 237 7,600 -1,800 Descending Albuquerque Center
01:06PM 34.9922 -106.6669 351° North 148 170 6,200 -1,080 Descending Albuquerque Center
01:07PM 35.0189 -106.6342 45° Northeast 137 158 5,400 -780 Descending Albuquerque Center
01:09PM 35.0333 -106.6000 90° East  Level FlightAware Approximate
01:16PM 35.0402 -106.6092 90° East  Level Estimated